Airfield :
LOGIN :

Register | Disclaimer

   EN    FR    IT 

 










Legend :    VFR   Marginal VFR   IFR   Intensive IFR   Very Intensive IFR
Visi :
Ceiling :
>= 8 km
>= 3000ft
5 to 8 km
1000 to 3000 ft
1500m to 5 km
500 to 1000 ft
800 to 1500m
200 to 500 ft
< 800m
< 200 ft
Symbols :   Thunderstorms  Fog  Heavy snow  Heavy precipitations  Wind > 20 kt
SIGMETs :     Misc.  Thunderstorms  Icing  Turbulence  Mountain Waves  Volcanic Ashes






- Airport Elevation : 499 ft
- IATA code : TLS


LFBO - Toulouse / Blagnac

CURRENT METAR :
  • 090730Z AUTO 30006KT 270V330 CAVOK 24/15 Q1020 NOSIG

EXPIRED METARs :
  • 090700Z AUTO 28007KT 220V310 CAVOK 23/15 Q1019 NOSIG
  • 090630Z AUTO 28006KT CAVOK 23/15 Q1019 NOSIG
  • 090600Z AUTO 24006KT CAVOK 21/14 Q1019 NOSIG
  • 090530Z AUTO 23004KT 200V260 CAVOK 19/13 Q1018 NOSIG
  • 090500Z AUTO VRB02KT CAVOK 18/11 Q1018 NOSIG

TAF TAF LFBO
Valid from the 09 at 06:00 until the 10 at 12:00 UTC


090500Z 0906/1012 VRB03KT CAVOK
TEMPO 1007/1012 15010KT
ATIS : +33 5 62 74 66 36



MET'MAP, your aeronautical weather chart ! - Copyright ORBIFLY December 2007 - Disclaimer

ORBIFLY MET'MAP TEAM :

Programming & Development : Alexandra Zaïnal
Original concept : Baudouin d'Aumeries
Technical & hardware support : Manuel Goepfert
Assistance : Marc-Olivier Méhu




SOURCES & CREDITS :

   NOAA